TimeMDT,TemperatureF,Dew PointF,Humidity,Sea Level PressureIn,VisibilityMPH,Wind Direction,Wind SpeedMPH,Gust SpeedMPH,PrecipitationIn,Events,Conditions,WindDirDegrees,DateUTC
12:53 AM,52.0,42.1,69,30.01,10.0,East,3.5,-,N/A,,Mostly Cloudy,80,2013-05-10 06:53:00
2:53 AM,54.0,43.0,66,30.01,10.0,Calm,Calm,-,N/A,,Mostly Cloudy,0,2013-05-10 08:53:00
3:53 AM,52.0,42.1,69,30.01,10.0,North,9.2,-,N/A,,Clear,10,2013-05-10 09:53:00
4:53 AM,48.9,41.0,74,30.05,10.0,NNW,3.5,-,N/A,,Clear,340,2013-05-10 10:53:00
6:53 AM,53.1,43.0,69,30.09,10.0,Calm,Calm,-,N/A,,Clear,0,2013-05-10 12:53:00
7:53 AM,57.0,42.1,57,30.09,10.0,NNE,16.1,-,N/A,,Partly Cloudy,20,2013-05-10 13:53:00
8:53 AM,59.0,43.0,55,30.11,10.0,ENE,11.5,-,N/A,,Scattered Clouds,60,2013-05-10 14:53:00
9:36 AM,60.8,42.8,52,30.20,10.0,NE,9.2,-,N/A,,Mostly Cloudy,50,2013-05-10 15:36:00
9:53 AM,61.0,43.0,52,30.09,10.0,NNE,11.5,-,N/A,,Mostly Cloudy,20,2013-05-10 15:53:00
10:05 AM,62.6,42.8,48,30.20,10.0,NE,11.5,16.1,N/A,,Mostly Cloudy,40,2013-05-10 16:05:00
10:53 AM,64.0,42.1,45,30.10,10.0,ENE,10.4,18.4,N/A,,Mostly Cloudy,60,2013-05-10 16:53:00
11:53 AM,66.9,41.0,39,30.09,10.0,NE,11.5,19.6,N/A,,Scattered Clouds,40,2013-05-10 17:53:00
12:53 PM,68.0,37.0,32,30.08,10.0,NNE,10.4,-,N/A,,Mostly Cloudy,30,2013-05-10 18:53:00
1:53 PM,68.0,37.0,32,30.06,10.0,East,6.9,17.3,N/A,,Overcast,80,2013-05-10 19:53:00
2:53 PM,68.0,37.0,32,30.04,10.0,East,8.1,-,N/A,,Overcast,90,2013-05-10 20:53:00
3:53 PM,66.0,36.0,33,30.04,9.0,North,29.9,36.8,N/A,,Overcast,360,2013-05-10 21:53:00
4:01 PM,64.4,37.4,37,30.14,7.0,Variable,3.5,36.8,0.00,Rain,Light Rain,0,2013-05-10 22:01:00
4:49 PM,64.4,39.2,40,30.15,10.0,NE,17.3,-,0.00,,Overcast,50,2013-05-10 22:49:00
4:53 PM,63.0,39.9,43,30.06,10.0,NNE,13.8,-,0.00,Rain,Light Rain,30,2013-05-10 22:53:00
5:53 PM,60.1,44.1,55,30.08,10.0,Variable,5.8,-,0.01,Rain,Light Rain,0,2013-05-10 23:53:00
6:53 PM,64.0,43.0,46,30.06,10.0,North,5.8,-,0.00,,Mostly Cloudy,360,2013-05-11 00:53:00
7:53 PM,60.1,46.0,60,30.07,10.0,North,4.6,-,N/A,,Clear,360,2013-05-11 01:53:00
8:53 PM,55.0,43.0,64,30.11,10.0,East,5.8,-,N/A,,Clear,100,2013-05-11 02:53:00
9:53 PM,53.1,42.1,66,30.14,10.0,SE,6.9,-,N/A,,Clear,140,2013-05-11 03:53:00
10:53 PM,51.1,44.1,77,30.15,10.0,West,4.6,-,N/A,,Clear,260,2013-05-11 04:53:00
11:53 PM,52.0,43.0,71,30.15,10.0,West,8.1,-,N/A,,Clear,280,2013-05-11 05:53:00